Time;durP1;ratioP1;P1;durP2;ratioP2;P2;SDS_P1;SDS_P2;PMS_P1;PMS_P2;Temp;Humidity;BMP_temperature;BMP_pressure;BME280_temperature;BME280_humidity;BME280_pressure;Samples;Min_cycle;Max_cycle;Signal;HPM_P1;HPM_P2
2022/09/28 00:01:23;;;;;;;7.70;7.00;;;8.30;99.90;;;;;;5037453;28;20457;-78
2022/09/28 00:03:53;;;;;;;7.43;6.83;;;8.30;99.90;;;;;;5037378;28;20536;-78
2022/09/28 00:06:24;;;;;;;7.37;6.67;;;8.20;99.90;;;;;;5035504;28;20545;-77
2022/09/28 00:08:52;;;;;;;8.40;7.53;;;8.20;99.90;;;;;;5035799;28;20455;-77
2022/09/28 00:11:22;;;;;;;8.33;7.63;;;8.30;99.90;;;;;;5037213;28;20455;-78
2022/09/28 00:13:52;;;;;;;7.20;6.50;;;8.20;99.90;;;;;;5035417;28;20463;-78
2022/09/28 00:16:24;;;;;;;7.70;6.97;;;8.30;99.90;;;;;;5035653;28;20439;-78
2022/09/28 00:18:53;;;;;;;8.67;7.97;;;8.20;99.90;;;;;;5036268;28;20443;-78
2022/09/28 00:21:23;;;;;;;10.13;9.20;;;8.20;99.90;;;;;;5036061;28;20500;-78
2022/09/28 00:26:42;;;;;;;11.07;8.40;;;8.20;99.90;;;;;;5036932;28;20530;-78
2022/09/28 00:29:20;;;;;;;9.03;8.30;;;8.20;99.90;;;;;;5035137;28;20475;-78
2022/09/28 00:31:52;;;;;;;9.50;8.60;;;8.20;99.90;;;;;;5035385;28;20977;-78
2022/09/28 00:34:20;;;;;;;9.27;8.47;;;8.20;99.90;;;;;;5034395;28;20577;-77
2022/09/28 00:36:49;;;;;;;9.30;8.40;;;8.20;99.90;;;;;;5035463;28;20940;-78
2022/09/28 00:39:17;;;;;;;9.53;8.63;;;8.10;99.90;;;;;;5034822;28;20451;-78
2022/09/28 00:41:46;;;;;;;9.50;8.70;;;8.10;99.90;;;;;;5035202;28;20447;-77
2022/09/28 00:44:38;;;;;;;9.80;9.00;;;8.10;99.90;;;;;;5034987;28;20532;-78
2022/09/28 00:47:24;;;;;;;11.03;10.07;;;8.10;99.90;;;;;;5029498;28;20485;-78
2022/09/28 00:49:57;;;;;;;9.70;8.80;;;8.10;99.90;;;;;;5036107;28;20430;-78
2022/09/28 00:52:31;;;;;;;11.20;10.20;;;8.10;99.90;;;;;;5034559;28;20461;-78
2022/09/28 00:55:02;;;;;;;11.33;10.43;;;8.10;99.90;;;;;;5035058;28;20473;-77
2022/09/28 00:57:31;;;;;;;10.13;9.30;;;8.10;99.90;;;;;;5035021;28;20451;-78
2022/09/28 01:00:00;;;;;;;9.60;8.80;;;8.10;99.90;;;;;;5034524;28;21033;-78
2022/09/28 01:02:31;;;;;;;10.23;9.20;;;8.10;99.90;;;;;;5034806;28;20470;-78
2022/09/28 01:05:00;;;;;;;9.60;8.90;;;8.10;99.90;;;;;;5035368;28;20860;-78
2022/09/28 01:07:29;;;;;;;9.23;8.53;;;8.10;99.90;;;;;;5035187;28;20450;-78
2022/09/28 01:09:57;;;;;;;10.17;9.27;;;8.10;99.90;;;;;;5034648;28;20442;-78
2022/09/28 01:12:25;;;;;;;9.40;8.50;;;8.10;99.90;;;;;;5035902;28;20446;-78
2022/09/28 01:14:53;;;;;;;9.27;8.47;;;8.10;99.90;;;;;;5034536;28;20455;-78
2022/09/28 01:17:27;;;;;;;10.10;9.30;;;8.10;99.90;;;;;;5034494;28;20454;-77
2022/09/28 01:20:47;;;;;;;9.00;8.30;;;8.10;99.90;;;;;;5034767;28;20473;-78
2022/09/28 01:23:56;;;;;;;9.80;9.00;;;8.10;99.90;;;;;;4958814;28;20539;-77
2022/09/28 01:26:55;;;;;;;9.87;9.07;;;8.10;99.90;;;;;;5035155;28;20541;-77
2022/09/28 01:29:35;;;;;;;10.30;9.30;;;8.10;99.90;;;;;;5018336;28;20484;-77
2022/09/28 01:32:14;;;;;;;9.97;9.17;;;8.10;99.90;;;;;;5034929;28;20461;-78
2022/09/28 01:34:47;;;;;;;9.67;8.97;;;8.10;99.90;;;;;;5034004;28;20556;-77
2022/09/28 01:37:18;;;;;;;10.67;9.73;;;8.10;99.90;;;;;;5033848;28;20533;-78
2022/09/28 01:39:51;;;;;;;9.90;9.10;;;8.10;99.90;;;;;;5034014;28;20947;-78
2022/09/28 01:42:24;;;;;;;9.43;8.63;;;8.10;99.90;;;;;;5033717;28;20441;-78
2022/09/28 01:44:56;;;;;;;8.60;7.90;;;8.00;99.90;;;;;;5035172;28;20438;-78
2022/09/28 01:47:27;;;;;;;9.00;8.30;;;8.10;99.90;;;;;;5041138;28;20506;-77
2022/09/28 01:50:00;;;;;;;9.27;8.47;;;8.10;99.90;;;;;;5041708;28;20426;-78
2022/09/28 01:52:34;;;;;;;10.80;9.90;;;8.00;99.90;;;;;;5042301;28;20422;-78
2022/09/28 01:55:08;;;;;;;11.87;10.97;;;8.00;99.90;;;;;;5040765;28;20449;-78
2022/09/28 01:57:42;;;;;;;12.73;11.53;;;8.00;99.90;;;;;;5040966;28;20453;-78
2022/09/28 02:00:15;;;;;;;13.17;12.00;;;8.00;99.90;;;;;;5041277;28;20477;-77
2022/09/28 02:02:49;;;;;;;11.43;10.43;;;8.00;99.90;;;;;;5040479;28;20470;-78
2022/09/28 02:05:28;;;;;;;10.97;9.87;;;8.00;99.90;;;;;;5041270;28;20442;-77
2022/09/28 02:08:02;;;;;;;10.80;9.97;;;8.00;99.90;;;;;;5040470;28;20507;-78
2022/09/28 02:10:35;;;;;;;10.77;9.77;;;8.00;99.90;;;;;;5040447;28;20442;-77
2022/09/28 02:13:11;;;;;;;10.80;9.90;;;8.00;99.90;;;;;;5040198;28;20465;-78
2022/09/28 02:15:45;;;;;;;11.37;10.33;;;8.00;99.90;;;;;;5041203;28;20524;-78
2022/09/28 02:18:14;;;;;;;12.07;11.00;;;8.00;99.90;;;;;;5040680;28;20442;-78
2022/09/28 02:20:49;;;;;;;10.17;9.20;;;8.10;99.90;;;;;;5041487;28;20502;-79
2022/09/28 02:23:18;;;;;;;11.67;10.67;;;8.00;99.90;;;;;;5042152;28;20531;-78
2022/09/28 02:25:51;;;;;;;11.87;10.87;;;8.10;99.90;;;;;;5041171;28;20453;-78
2022/09/28 02:28:22;;;;;;;11.30;10.30;;;8.10;99.90;;;;;;5041029;28;21050;-78
2022/09/28 02:30:51;;;;;;;11.10;10.20;;;8.10;99.90;;;;;;5041505;28;20458;-78
2022/09/28 02:33:24;;;;;;;12.40;11.40;;;8.10;99.90;;;;;;5041591;28;20565;-78
2022/09/28 02:35:53;;;;;;;13.63;12.30;;;8.10;99.90;;;;;;5041496;28;20454;-78
2022/09/28 02:38:27;;;;;;;12.80;11.80;;;8.10;99.90;;;;;;5041195;28;20819;-78
2022/09/28 02:41:04;;;;;;;13.97;12.80;;;8.20;99.90;;;;;;5040825;28;20450;-78
2022/09/28 02:43:46;;;;;;;15.00;13.60;;;8.20;99.90;;;;;;5042375;28;20568;-77
2022/09/28 02:46:24;;;;;;;14.70;13.40;;;8.20;99.90;;;;;;5040843;28;20441;-78
2022/09/28 02:49:11;;;;;;;14.07;12.97;;;8.20;99.90;;;;;;5040556;28;20450;-77
2022/09/28 02:52:14;;;;;;;15.23;13.73;;;8.20;99.90;;;;;;5041045;28;20525;-78
2022/09/28 02:55:02;;;;;;;17.07;15.47;;;8.20;99.90;;;;;;5040977;28;21020;-78
2022/09/28 02:57:41;;;;;;;16.20;14.60;;;8.30;99.90;;;;;;5037786;28;20474;-77
2022/09/28 03:00:14;;;;;;;16.47;14.97;;;8.30;99.90;;;;;;5038514;28;20856;-78
2022/09/28 03:02:52;;;;;;;16.43;15.13;;;8.30;99.90;;;;;;5037558;28;20494;-78
2022/09/28 03:05:25;;;;;;;16.63;15.03;;;8.30;99.90;;;;;;5037488;28;21007;-78
2022/09/28 03:07:59;;;;;;;18.13;16.50;;;8.30;99.90;;;;;;5037663;28;20449;-78
2022/09/28 03:10:37;;;;;;;19.10;17.30;;;8.30;99.90;;;;;;5037394;28;20447;-78
2022/09/28 03:13:06;;;;;;;37.27;33.50;;;8.40;99.90;;;;;;5037194;28;20564;-78
2022/09/28 03:15:37;;;;;;;19.50;17.83;;;8.40;99.90;;;;;;5037055;28;20446;-77
2022/09/28 03:18:05;;;;;;;29.57;26.70;;;8.40;99.90;;;;;;5037234;28;20458;-78
2022/09/28 03:20:34;;;;;;;21.30;19.50;;;8.40;99.90;;;;;;5036655;28;20478;-77
2022/09/28 03:23:02;;;;;;;23.23;21.10;;;8.40;99.90;;;;;;5037010;28;20532;-78
2022/09/28 03:25:51;;;;;;;22.87;20.77;;;8.40;99.90;;;;;;5036481;28;20440;-77
2022/09/28 03:28:20;;;;;;;22.13;20.23;;;8.50;99.90;;;;;;5036450;28;20462;-78
2022/09/28 03:30:50;;;;;;;26.50;23.80;;;8.40;99.90;;;;;;5037658;28;20469;-78
2022/09/28 03:33:18;;;;;;;21.47;19.50;;;8.50;99.90;;;;;;5039124;28;20470;-78
2022/09/28 03:35:47;;;;;;;21.80;19.80;;;8.50;99.90;;;;;;5039209;28;20501;-79
2022/09/28 03:38:17;;;;;;;19.90;17.90;;;8.50;99.90;;;;;;5038917;28;20455;-78
2022/09/28 03:40:53;;;;;;;19.47;17.73;;;8.60;99.90;;;;;;5037083;28;20465;-78
2022/09/28 03:43:21;;;;;;;18.30;16.70;;;8.50;99.90;;;;;;5036587;28;20462;-78
2022/09/28 03:45:55;;;;;;;20.37;18.57;;;8.60;99.90;;;;;;5036903;28;20952;-78
2022/09/28 03:48:26;;;;;;;20.27;18.50;;;8.60;99.90;;;;;;5036555;28;20435;-78
2022/09/28 03:51:01;;;;;;;19.10;17.40;;;8.50;99.90;;;;;;5036297;28;20958;-78
2022/09/28 03:53:29;;;;;;;20.73;19.00;;;8.60;99.90;;;;;;5036461;28;20478;-77
2022/09/28 03:56:03;;;;;;;21.20;19.33;;;8.60;99.90;;;;;;5036303;28;20484;-78
2022/09/28 03:58:32;;;;;;;19.87;17.97;;;8.60;99.90;;;;;;5036346;28;20959;-78
2022/09/28 04:01:04;;;;;;;21.90;19.97;;;8.60;99.90;;;;;;5037132;28;20457;-78
2022/09/28 04:03:32;;;;;;;22.67;20.57;;;8.60;99.90;;;;;;5036382;28;20463;-78
2022/09/28 04:06:01;;;;;;;20.93;19.17;;;8.60;99.90;;;;;;5036390;28;20549;-78
2022/09/28 04:08:29;;;;;;;20.87;19.03;;;8.60;99.90;;;;;;5035276;28;20441;-77
2022/09/28 04:10:58;;;;;;;21.47;19.67;;;8.60;99.90;;;;;;5035654;28;20972;-77
2022/09/28 04:13:26;;;;;;;21.83;19.93;;;8.70;99.90;;;;;;5035467;28;20469;-78
2022/09/28 04:15:56;;;;;;;21.27;19.37;;;8.70;99.90;;;;;;5035537;28;20497;-78
2022/09/28 04:18:28;;;;;;;21.97;19.97;;;8.70;99.90;;;;;;5034794;28;20443;-77
2022/09/28 04:21:13;;;;;;;20.30;18.50;;;8.70;99.90;;;;;;5035252;28;20451;-77
2022/09/28 04:24:07;;;;;;;20.60;18.70;;;8.70;99.90;;;;;;5034857;28;20470;-78
2022/09/28 04:26:36;;;;;;;22.43;20.47;;;8.70;99.90;;;;;;5034640;28;20545;-77
2022/09/28 04:29:15;;;;;;;21.33;19.63;;;8.70;99.90;;;;;;5034666;28;20502;-77
2022/09/28 04:32:04;;;;;;;20.80;18.83;;;8.70;99.90;;;;;;5035123;28;20451;-77
2022/09/28 04:34:37;;;;;;;20.07;18.23;;;8.80;99.90;;;;;;5033956;28;20491;-76
2022/09/28 04:37:11;;;;;;;19.73;17.83;;;8.70;99.90;;;;;;5034209;28;20454;-77
2022/09/28 04:39:40;;;;;;;19.07;17.23;;;8.70;99.90;;;;;;5033866;28;20535;-77
2022/09/28 04:42:16;;;;;;;17.40;15.80;;;8.80;99.90;;;;;;5033619;28;20524;-77
2022/09/28 04:44:45;;;;;;;18.13;16.33;;;8.70;99.90;;;;;;5033655;28;20578;-76
2022/09/28 04:47:13;;;;;;;17.87;16.03;;;8.70;99.90;;;;;;5033618;28;20446;-76
2022/09/28 04:50:13;;;;;;;16.30;14.83;;;8.70;99.90;;;;;;5033603;28;20448;-77
2022/09/28 04:53:00;;;;;;;15.80;14.40;;;8.70;99.90;;;;;;5035148;28;20533;-76
2022/09/28 04:55:31;;;;;;;15.43;13.77;;;8.70;99.90;;;;;;5033385;28;20458;-76
2022/09/28 04:58:01;;;;;;;14.47;13.07;;;8.60;99.90;;;;;;5033260;28;20443;-76
2022/09/28 05:00:32;;;;;;;17.23;15.63;;;8.60;99.90;;;;;;5034421;28;20430;-77
2022/09/28 05:03:09;;;;;;;16.27;14.77;;;8.60;99.90;;;;;;5033568;28;21062;-76
2022/09/28 05:06:17;;;;;;;15.00;13.60;;;8.70;99.90;;;;;;4993054;28;20985;-77
2022/09/28 05:08:47;;;;;;;15.03;13.70;;;8.70;99.90;;;;;;4993044;28;20441;-76
2022/09/28 05:11:18;;;;;;;14.33;12.83;;;8.60;99.90;;;;;;5004091;28;20475;-77
2022/09/28 05:13:47;;;;;;;14.40;13.00;;;8.70;99.90;;;;;;5033329;28;20877;-77
2022/09/28 05:16:19;;;;;;;13.43;12.13;;;8.70;99.90;;;;;;5033039;28;20450;-77
2022/09/28 05:19:16;;;;;;;13.50;12.20;;;8.70;99.90;;;;;;4980651;28;20441;-76
2022/09/28 05:21:47;;;;;;;11.37;10.27;;;8.70;99.90;;;;;;5032467;28;20500;-76
2022/09/28 05:24:15;;;;;;;11.83;10.70;;;8.60;99.90;;;;;;5032467;28;20502;-77
2022/09/28 05:26:49;;;;;;;11.87;10.67;;;8.60;99.90;;;;;;5032679;28;20862;-76
2022/09/28 05:29:17;;;;;;;11.40;10.30;;;8.60;99.90;;;;;;5032730;28;21029;-76
2022/09/28 05:32:12;;;;;;;11.27;9.60;;;8.60;99.90;;;;;;5018024;28;20450;-77
2022/09/28 05:35:05;;;;;;;10.07;9.07;;;8.60;99.90;;;;;;5030542;28;20450;-77
2022/09/28 05:37:42;;;;;;;10.20;9.30;;;8.60;99.90;;;;;;5032481;28;21022;-76
2022/09/28 05:40:11;;;;;;;10.17;9.27;;;8.60;99.90;;;;;;5032432;28;20453;-76
2022/09/28 05:42:40;;;;;;;13.63;8.40;;;8.60;99.90;;;;;;5032213;28;20481;-76
2022/09/28 05:45:10;;;;;;;7.33;6.63;;;8.50;99.90;;;;;;5032137;28;20524;-76
2022/09/28 05:47:42;;;;;;;6.90;6.20;;;8.60;99.90;;;;;;5032683;28;20446;-76
2022/09/28 05:50:14;;;;;;;7.53;6.70;;;8.60;99.90;;;;;;5032225;28;20474;-76
2022/09/28 05:52:44;;;;;;;8.07;7.03;;;8.60;99.90;;;;;;5032069;28;20912;-76
2022/09/28 05:55:14;;;;;;;7.27;6.50;;;8.60;99.90;;;;;;5032270;28;20471;-76
2022/09/28 05:57:43;;;;;;;6.33;5.73;;;8.60;99.90;;;;;;5032333;28;20508;-76
2022/09/28 06:00:12;;;;;;;6.63;6.00;;;8.60;99.90;;;;;;5032345;28;20829;-76
2022/09/28 06:02:42;;;;;;;6.20;5.60;;;8.60;99.90;;;;;;5032385;28;20471;-76
2022/09/28 06:05:13;;;;;;;6.23;5.63;;;8.60;99.90;;;;;;5031950;28;20467;-76
2022/09/28 06:07:41;;;;;;;6.77;6.07;;;8.60;99.90;;;;;;5031911;28;20508;-76
2022/09/28 06:10:11;;;;;;;6.57;5.97;;;8.60;99.90;;;;;;5032122;28;20454;-77
2022/09/28 06:12:41;;;;;;;6.90;6.20;;;8.60;99.90;;;;;;5031986;28;21025;-76
2022/09/28 06:15:16;;;;;;;6.40;5.80;;;8.60;99.90;;;;;;5032012;28;20955;-76
2022/09/28 06:17:46;;;;;;;6.47;5.50;;;8.60;99.90;;;;;;5032193;28;20444;-76
2022/09/28 06:20:36;;;;;;;6.80;5.70;;;8.50;99.90;;;;;;5032225;28;20526;-76
2022/09/28 06:23:15;;;;;;;6.57;5.87;;;8.60;99.90;;;;;;5033055;28;20509;-76
2022/09/28 06:25:45;;;;;;;5.37;4.53;;;8.60;99.90;;;;;;5032599;28;20554;-77
2022/09/28 06:28:14;;;;;;;6.27;5.40;;;8.60;99.90;;;;;;5032954;28;20811;-77
2022/09/28 06:30:49;;;;;;;5.90;5.30;;;8.60;99.90;;;;;;5033773;28;20462;-77
2022/09/28 06:33:20;;;;;;;6.67;5.97;;;8.60;99.90;;;;;;5035859;28;20482;-77
2022/09/28 06:35:49;;;;;;;5.70;5.10;;;8.60;99.90;;;;;;5036423;28;20896;-77
2022/09/28 06:38:17;;;;;;;7.90;6.20;;;8.50;99.90;;;;;;5036566;28;20449;-77
2022/09/28 06:40:46;;;;;;;5.47;4.93;;;8.50;99.90;;;;;;5036651;28;20456;-77
2022/09/28 06:43:15;;;;;;;7.53;5.70;;;8.60;99.90;;;;;;5036112;28;20481;-77
2022/09/28 06:46:02;;;;;;;6.17;5.57;;;8.60;99.90;;;;;;5037170;28;20873;-77
2022/09/28 06:48:53;;;;;;;5.67;5.07;;;8.60;99.90;;;;;;5037467;28;20957;-77
2022/09/28 06:51:45;;;;;;;5.83;5.33;;;8.60;99.90;;;;;;5037284;28;20443;-77
2022/09/28 06:54:24;;;;;;;6.30;5.60;;;8.60;99.90;;;;;;5035984;28;20475;-77
2022/09/28 06:57:09;;;;;;;6.17;5.57;;;8.70;99.90;;;;;;5037131;28;20457;-76
2022/09/28 06:59:38;;;;;;;6.80;6.20;;;8.60;99.90;;;;;;5035381;28;20979;-76
2022/09/28 07:02:06;;;;;;;8.30;7.30;;;8.70;99.90;;;;;;5035458;28;20462;-77
2022/09/28 07:05:08;;;;;;;7.43;6.70;;;8.70;99.90;;;;;;5035626;28;20871;-77
2022/09/28 07:07:58;;;;;;;7.87;7.13;;;8.70;99.90;;;;;;5035914;28;20443;-77
2022/09/28 07:10:42;;;;;;;9.20;7.80;;;8.70;99.90;;;;;;5035497;28;20963;-76
2022/09/28 07:13:30;;;;;;;7.83;7.13;;;8.70;99.90;;;;;;5035245;28;20500;-76
2022/09/28 07:16:21;;;;;;;8.20;7.50;;;8.70;99.90;;;;;;5035943;28;20439;-77
2022/09/28 07:18:55;;;;;;;9.57;7.57;;;8.80;99.90;;;;;;5035213;28;20447;-77
2022/09/28 07:21:24;;;;;;;9.70;8.70;;;8.80;99.90;;;;;;5034911;28;21009;-76
2022/09/28 07:24:00;;;;;;;8.90;8.03;;;8.80;99.90;;;;;;5034842;28;20866;-76
2022/09/28 07:26:34;;;;;;;8.80;8.00;;;8.90;99.90;;;;;;5036813;28;20830;-77
2022/09/28 07:29:30;;;;;;;8.20;7.43;;;8.90;99.90;;;;;;5035183;28;20948;-77
2022/09/28 07:32:17;;;;;;;9.17;7.50;;;8.90;99.90;;;;;;5034961;28;20494;-77
2022/09/28 07:35:06;;;;;;;8.33;7.47;;;9.00;99.90;;;;;;5036454;28;20433;-76
2022/09/28 07:37:46;;;;;;;7.50;6.80;;;9.00;99.90;;;;;;5035264;28;20457;-76
2022/09/28 07:43:04;;;;;;;7.37;6.70;;;9.00;99.90;;;;;;5034722;28;20495;-76
2022/09/28 07:45:35;;;;;;;9.60;7.53;;;9.10;99.90;;;;;;5036330;28;20423;-77
2022/09/28 07:48:04;;;;;;;7.87;7.07;;;9.10;99.90;;;;;;5034619;28;20952;-77
2022/09/28 07:50:53;;;;;;;8.17;7.37;;;9.20;99.90;;;;;;5036690;28;20426;-76
2022/09/28 07:53:41;;;;;;;9.60;8.70;;;9.20;99.90;;;;;;5034739;28;20990;-77
2022/09/28 07:56:33;;;;;;;9.17;8.27;;;9.30;99.90;;;;;;5034786;28;20443;-77
2022/09/28 07:59:25;;;;;;;8.57;7.87;;;9.40;99.90;;;;;;5035479;28;20447;-76
2022/09/28 08:02:13;;;;;;;9.30;8.40;;;9.40;99.90;;;;;;5036138;28;20570;-76
2022/09/28 08:04:42;;;;;;;9.27;8.37;;;9.50;99.90;;;;;;5034483;28;20472;-76
2022/09/28 08:07:11;;;;;;;9.17;8.37;;;9.50;99.90;;;;;;5033987;28;20475;-77
2022/09/28 08:09:40;;;;;;;8.60;7.80;;;9.60;99.90;;;;;;5035562;28;20772;-76
2022/09/28 08:12:18;;;;;;;9.87;8.97;;;9.60;99.90;;;;;;5035829;28;20437;-77
2022/09/28 08:15:01;;;;;;;8.43;7.63;;;9.70;99.90;;;;;;5034762;28;21051;-77
2022/09/28 08:17:48;;;;;;;9.83;8.93;;;9.70;99.90;;;;;;5034754;28;20439;-77
2022/09/28 08:23:06;;;;;;;10.37;8.70;;;9.80;99.90;;;;;;5034600;28;20471;-76
2022/09/28 08:25:37;;;;;;;9.63;8.73;;;9.90;99.90;;;;;;5034590;28;20443;-76
2022/09/28 08:28:06;;;;;;;10.50;9.50;;;9.90;99.90;;;;;;5034203;28;20499;-77
2022/09/28 08:30:43;;;;;;;13.60;12.30;;;9.90;99.90;;;;;;5034411;28;20493;-77
2022/09/28 08:33:35;;;;;;;11.20;10.20;;;10.00;99.90;;;;;;5035485;28;20466;-77
2022/09/28 08:36:22;;;;;;;11.70;10.60;;;10.00;99.90;;;;;;5035162;28;20431;-77
2022/09/28 08:39:04;;;;;;;18.10;15.60;;;10.00;99.90;;;;;;5035250;28;20431;-76
2022/09/28 08:42:07;;;;;;;13.10;11.87;;;10.10;99.90;;;;;;5035207;28;20470;-78
2022/09/28 08:44:41;;;;;;;13.93;12.57;;;10.10;99.90;;;;;;5035682;28;20516;-78
2022/09/28 08:48:42;;;;;;;14.17;12.73;;;10.20;99.90;;;;;;5035525;28;20458;-77
2022/09/28 08:50:26;;;;;;;14.90;13.30;;;10.20;99.90;;;;;;5033686;28;20455;-77
2022/09/28 08:53:30;;;;;;;15.07;13.70;;;10.20;99.90;;;;;;5035102;28;20471;-76
2022/09/28 08:56:29;;;;;;;13.70;12.47;;;10.20;99.90;;;;;;5034157;28;20964;-76
2022/09/28 08:59:01;;;;;;;15.03;13.53;;;10.20;99.90;;;;;;5034066;28;20447;-77
2022/09/28 09:01:36;;;;;;;14.27;12.93;;;10.30;99.90;;;;;;5034545;28;20435;-76
2022/09/28 09:04:09;;;;;;;13.33;12.00;;;10.30;99.90;;;;;;5034269;28;20481;-77
2022/09/28 09:07:22;;;;;;;13.27;11.97;;;10.40;99.90;;;;;;5036050;28;20525;-78
2022/09/28 09:10:08;;;;;;;13.23;12.03;;;10.40;99.90;;;;;;5030273;28;20880;-78
2022/09/28 09:12:44;;;;;;;14.60;13.30;;;10.40;99.90;;;;;;5035764;28;20529;-78
2022/09/28 09:15:33;;;;;;;15.70;13.33;;;10.50;99.90;;;;;;5034336;28;20445;-78
2022/09/28 09:18:22;;;;;;;15.43;13.90;;;10.50;99.90;;;;;;5034964;28;20514;-77
2022/09/28 09:21:16;;;;;;;15.43;14.03;;;10.50;99.90;;;;;;5032368;28;20443;-78
2022/09/28 09:23:55;;;;;;;17.57;15.97;;;10.60;99.90;;;;;;5033884;28;20467;-77
2022/09/28 09:26:38;;;;;;;16.93;15.50;;;10.60;99.90;;;;;;5035030;28;20458;-78
2022/09/28 09:29:29;;;;;;;16.63;15.13;;;10.70;99.90;;;;;;5034478;28;20439;-78
2022/09/28 09:32:17;;;;;;;16.40;14.90;;;10.80;99.90;;;;;;5034248;28;20455;-77
2022/09/28 09:35:16;;;;;;;18.40;16.60;;;10.80;99.90;;;;;;5033915;28;20444;-78
2022/09/28 09:38:23;;;;;;;17.47;15.83;;;10.90;99.90;;;;;;5035732;28;20426;-78
2022/09/28 09:41:21;;;;;;;16.43;14.90;;;10.90;99.90;;;;;;5035976;28;20496;-78
2022/09/28 09:44:37;;;;;;;16.80;15.20;;;11.00;99.90;;;;;;4980495;28;20472;-76
2022/09/28 09:47:36;;;;;;;17.47;15.67;;;11.00;99.90;;;;;;5026016;28;20499;-77
2022/09/28 09:50:28;;;;;;;16.60;15.00;;;11.10;99.90;;;;;;5034977;28;20462;-79
2022/09/28 09:53:02;;;;;;;15.70;14.40;;;11.10;99.90;;;;;;5033662;28;20470;-77
2022/09/28 09:55:34;;;;;;;17.00;15.50;;;11.20;99.90;;;;;;5033069;28;20496;-77
2022/09/28 09:58:29;;;;;;;16.70;15.07;;;11.20;99.90;;;;;;5034007;28;20446;-77
2022/09/28 10:01:19;;;;;;;15.87;14.47;;;11.20;99.90;;;;;;5033996;28;20434;-77
2022/09/28 10:04:13;;;;;;;15.60;14.30;;;11.30;99.90;;;;;;5034415;28;20461;-77
2022/09/28 10:06:43;;;;;;;15.90;14.40;;;11.30;99.90;;;;;;5034598;28;20515;-79
2022/09/28 10:09:18;;;;;;;15.40;14.00;;;11.30;99.90;;;;;;5036795;28;20821;-78
2022/09/28 10:11:49;;;;;;;16.10;14.70;;;11.30;99.90;;;;;;5038900;28;20904;-78
2022/09/28 10:14:21;;;;;;;14.83;13.33;;;11.30;99.90;;;;;;5036730;28;21087;-77
2022/09/28 10:16:58;;;;;;;15.40;14.10;;;11.30;99.90;;;;;;5037116;28;20450;-79
2022/09/28 10:19:45;;;;;;;14.70;13.30;;;11.30;99.90;;;;;;5038294;28;20429;-76
2022/09/28 10:22:33;;;;;;;14.30;13.00;;;11.30;99.90;;;;;;5040971;28;20434;-77
2022/09/28 10:25:11;;;;;;;15.03;13.60;;;11.30;99.90;;;;;;5037074;28;20449;-77
2022/09/28 10:27:44;;;;;;;16.40;14.80;;;11.40;99.90;;;;;;5037369;28;20482;-77
2022/09/28 10:30:18;;;;;;;19.73;17.87;;;11.40;99.90;;;;;;5037007;28;20462;-78
2022/09/28 10:32:49;;;;;;;16.07;14.57;;;11.50;99.90;;;;;;5036637;28;20466;-77
2022/09/28 10:35:23;;;;;;;15.47;14.17;;;11.50;99.90;;;;;;5036602;28;20438;-77
2022/09/28 10:38:02;;;;;;;15.77;14.33;;;11.50;99.90;;;;;;5037674;28;20450;-78
2022/09/28 10:40:46;;;;;;;17.07;15.57;;;11.50;99.90;;;;;;5038135;28;20439;-78
2022/09/28 10:43:24;;;;;;;15.47;14.17;;;11.60;99.90;;;;;;5036908;28;20478;-78
2022/09/28 10:46:05;;;;;;;17.30;15.70;;;11.60;99.90;;;;;;5036725;28;20888;-77
2022/09/28 10:48:48;;;;;;;15.37;14.07;;;11.70;99.90;;;;;;5036673;28;20550;-79
2022/09/28 10:51:17;;;;;;;16.00;14.60;;;11.70;99.90;;;;;;5036191;28;20477;-77
2022/09/28 10:53:59;;;;;;;16.50;15.00;;;11.80;99.90;;;;;;5036864;28;20472;-77
2022/09/28 10:56:46;;;;;;;15.47;13.87;;;11.80;99.90;;;;;;5036029;28;20458;-78
2022/09/28 10:59:40;;;;;;;16.27;14.87;;;11.80;99.90;;;;;;5036230;28;20446;-77
2022/09/28 11:02:32;;;;;;;16.63;15.27;;;11.80;99.90;;;;;;5036479;28;20441;-78
2022/09/28 11:05:26;;;;;;;15.73;14.43;;;11.70;99.90;;;;;;5037049;28;20447;-78
2022/09/28 11:07:59;;;;;;;15.07;13.73;;;11.70;99.90;;;;;;5037947;28;20462;-79
2022/09/28 11:10:35;;;;;;;14.23;13.03;;;11.80;99.90;;;;;;5036896;28;20438;-78
2022/09/28 11:13:11;;;;;;;14.10;12.90;;;11.80;99.90;;;;;;5037146;28;20505;-78
2022/09/28 11:15:44;;;;;;;15.87;14.57;;;11.80;99.90;;;;;;5037467;28;20447;-79
2022/09/28 11:18:30;;;;;;;13.83;12.47;;;11.80;99.90;;;;;;5037433;28;20433;-80
2022/09/28 11:21:10;;;;;;;15.40;13.90;;;11.90;99.90;;;;;;5038371;28;20504;-79
2022/09/28 11:24:00;;;;;;;13.60;12.40;;;11.90;99.90;;;;;;5037832;28;20470;-78
2022/09/28 11:26:37;;;;;;;13.47;12.37;;;11.90;99.90;;;;;;5037411;28;20531;-79
2022/09/28 11:29:07;;;;;;;12.63;11.50;;;11.90;99.90;;;;;;5038194;28;20486;-78
2022/09/28 11:31:47;;;;;;;12.57;11.37;;;11.90;99.90;;;;;;5038539;28;20457;-79
2022/09/28 11:34:25;;;;;;;12.83;11.70;;;11.90;99.90;;;;;;5037701;28;20482;-79
2022/09/28 11:37:44;;;;;;;14.40;12.97;;;11.90;99.90;;;;;;5036940;28;21003;-78
2022/09/28 11:40:30;;;;;;;13.80;12.40;;;11.90;99.90;;;;;;5037377;28;20439;-79
2022/09/28 11:43:10;;;;;;;12.23;11.13;;;12.00;99.90;;;;;;5036949;28;20544;-79
2022/09/28 11:45:52;;;;;;;10.93;10.03;;;12.10;99.90;;;;;;5037274;28;20435;-79
2022/09/28 11:48:25;;;;;;;10.10;9.20;;;12.10;99.90;;;;;;5036663;28;20463;-79
2022/09/28 11:50:58;;;;;;;10.30;9.30;;;12.20;99.90;;;;;;5036051;28;20447;-79
2022/09/28 11:53:30;;;;;;;9.00;8.20;;;12.30;99.90;;;;;;5036141;28;20927;-78
2022/09/28 11:56:06;;;;;;;8.80;7.90;;;12.40;99.90;;;;;;5036050;28;20857;-78
2022/09/28 11:58:42;;;;;;;10.40;9.20;;;12.40;99.90;;;;;;5036065;28;20446;-78
2022/09/28 12:01:22;;;;;;;10.17;9.17;;;12.50;99.90;;;;;;5035589;28;20458;-80
2022/09/28 12:04:13;;;;;;;8.30;7.50;;;12.60;99.90;;;;;;5037326;28;20454;-80
2022/09/28 12:06:49;;;;;;;8.23;7.43;;;12.60;99.90;;;;;;5037427;28;20446;-79
2022/09/28 12:09:25;;;;;;;10.47;6.13;;;12.60;99.90;;;;;;5039050;28;20463;-79
2022/09/28 12:12:02;;;;;;;7.80;6.30;;;12.60;99.90;;;;;;5036015;28;20445;-80
2022/09/28 12:14:42;;;;;;;6.30;5.70;;;12.50;99.90;;;;;;5036446;28;20546;-77
2022/09/28 12:17:21;;;;;;;5.30;4.80;;;12.60;99.90;;;;;;5036903;28;20474;-78
2022/09/28 12:19:54;;;;;;;5.33;4.83;;;12.60;99.90;;;;;;5035240;28;20469;-78
2022/09/28 12:22:29;;;;;;;9.17;8.27;;;12.50;99.90;;;;;;5035483;28;20542;-79
2022/09/28 12:24:59;;;;;;;11.23;8.20;;;12.50;99.90;;;;;;5034845;28;20940;-77
2022/09/28 12:27:31;;;;;;;9.30;8.37;;;12.50;99.90;;;;;;5036634;28;20439;-78
2022/09/28 12:30:04;;;;;;;9.70;8.70;;;12.50;99.90;;;;;;5035170;28;20479;-78
2022/09/28 12:32:36;;;;;;;10.47;9.43;;;12.50;99.90;;;;;;5035078;28;20964;-78
2022/09/28 12:35:13;;;;;;;8.23;7.43;;;12.50;99.90;;;;;;5036532;28;20432;-78
2022/09/28 12:38:19;;;;;;;9.40;8.50;;;12.50;99.90;;;;;;5035488;28;20790;-78
2022/09/28 12:40:57;;;;;;;8.80;7.90;;;12.50;99.90;;;;;;5016422;28;20944;-79
2022/09/28 12:43:53;;;;;;;8.00;6.57;;;12.50;99.90;;;;;;5036035;28;20470;-79
2022/09/28 12:46:47;;;;;;;7.90;6.60;;;12.60;99.90;;;;;;5035793;28;20431;-79
2022/09/28 12:49:34;;;;;;;9.23;7.20;;;12.60;99.90;;;;;;5035600;28;20489;-78
2022/09/28 12:52:40;;;;;;;7.33;6.53;;;12.60;99.90;;;;;;5039687;28;20481;-78
2022/09/28 12:55:34;;;;;;;10.30;7.77;;;12.70;99.90;;;;;;5041601;28;20447;-78
2022/09/28 12:58:17;;;;;;;8.20;7.40;;;12.70;99.90;;;;;;5043456;28;20469;-79
2022/09/28 13:00:55;;;;;;;9.10;7.20;;;12.70;99.90;;;;;;5045187;28;20451;-79
2022/09/28 13:03:50;;;;;;;8.17;7.37;;;12.80;99.90;;;;;;5040654;28;20463;-79
2022/09/28 13:06:47;;;;;;;7.40;6.50;;;12.80;99.90;;;;;;5036339;28;20995;-80
2022/09/28 13:09:20;;;;;;;7.70;6.90;;;12.90;99.90;;;;;;5038203;28;20512;-78
2022/09/28 13:11:59;;;;;;;7.70;6.90;;;12.90;99.90;;;;;;5037974;28;20435;-78
2022/09/28 13:14:56;;;;;;;4.43;3.77;;;13.00;99.90;;;;;;5035003;28;20472;-79
2022/09/28 13:17:37;;;;;;;7.03;4.27;;;13.10;99.90;;;;;;5036766;28;20419;-80
2022/09/28 13:20:17;;;;;;;7.17;5.40;;;13.20;99.90;;;;;;5034928;28;20449;-78
2022/09/28 13:22:53;;;;;;;5.53;3.53;;;13.20;99.90;;;;;;5034787;28;20482;-78
2022/09/28 13:25:25;;;;;;;6.00;4.70;;;13.20;99.90;;;;;;5034807;28;20546;-77
2022/09/28 13:27:59;;;;;;;5.23;4.20;;;13.30;99.90;;;;;;5033907;28;20542;-78
2022/09/28 13:30:27;;;;;;;4.97;4.17;;;13.30;99.90;;;;;;5035599;28;20493;-79
2022/09/28 13:32:58;;;;;;;5.03;4.50;;;13.40;99.90;;;;;;5033483;28;20506;-77
2022/09/28 13:35:28;;;;;;;6.33;4.10;;;13.40;99.90;;;;;;5036939;28;20431;-80
2022/09/28 13:38:30;;;;;;;5.10;4.17;;;13.40;99.90;;;;;;5035732;28;20434;-78
2022/09/28 13:41:21;;;;;;;6.07;4.67;;;13.50;99.90;;;;;;5037156;28;20426;-78
2022/09/28 13:44:22;;;;;;;5.13;3.83;;;13.60;99.90;;;;;;5041522;28;20467;-79
2022/09/28 13:47:03;;;;;;;5.60;4.57;;;13.70;99.90;;;;;;5035700;28;20439;-78
2022/09/28 13:49:44;;;;;;;5.10;4.43;;;13.70;99.90;;;;;;5037391;28;20471;-77